Weather reports worldwide

Advertisment
Comiso, Italy (16475): temperature & dewpoint: 27.06.2020 18:00:00 - 03.07.2020 18:00:00 (CEST)Comiso, Italy (16475): wind speed: 27.06.2020 18:00:00 - 03.07.2020 18:00:00 (CEST)Comiso, Italy (16475): wind direction: 27.06.2020 18:00:00 - 03.07.2020 18:00:00 (CEST)Comiso, Italy (16475): visibility: 27.06.2020 18:00:00 - 03.07.2020 18:00:00 (CEST)
Date & Time tt [°C] td [°C] ff [km/h] ff [kn] dd vv [km]
03.07.2020 18:00:00 32,0 18,0 11 6 S 10
03.07.2020 17:00:00 33,0 16,0 13 7 WSW 10
03.07.2020 16:00:00 34,0 16,0 21 11 WSW 10
03.07.2020 15:00:00 34,0 13,0 16 9 SW 10
03.07.2020 14:00:00 34,0 13,0 13 7 WSW 10
03.07.2020 13:00:00 34,0 15,0 13 7 SW 10
03.07.2020 12:00:00 33,0 17,0 15 8 WSW 10
03.07.2020 11:00:00 32,0 18,0 13 7 SW 10
03.07.2020 10:00:00 31,0 14,0 8 4 SW 10
03.07.2020 09:00:00 30,0 14,0 8 4 SSW 10
03.07.2020 08:00:00 26,0 15,0 4 2 - 10
03.07.2020 07:00:00 21,0 17,0 4 2 ENE 10
03.07.2020 06:00:00 20,0 17,0 5 3 ESE 10
03.07.2020 05:00:00 19,0 15,0 5 3 WSW 10
03.07.2020 04:00:00 20,0 16,0 9 5 NE 10
03.07.2020 03:00:00 20,0 18,0 8 4 NE 10
03.07.2020 02:00:00 20,0 19,0 5 3 ENE 8
03.07.2020 01:00:00 21,0 21,0 4 2 NNE 8
03.07.2020 00:00:00 22,0 21,0 5 3 SW 10
02.07.2020 23:00:00 22,0 21,0 2 1 - 10
02.07.2020 22:00:00 22,0 21,0 8 4 SW -
02.07.2020 21:00:00 24,0 20,0 8 4 WSW -
02.07.2020 20:00:00 27,0 19,0 8 4 SW 10
02.07.2020 19:00:00 27,0 19,0 13 7 WSW 10
02.07.2020 18:00:00 29,0 18,0 15 8 WSW 10
02.07.2020 17:00:00 31,0 17,0 13 7 WSW 10
02.07.2020 16:00:00 33,0 16,0 13 7 WSW 10
02.07.2020 15:00:00 32,0 14,0 22 12 WSW 10
02.07.2020 14:00:00 34,0 12,0 16 9 WSW 10
02.07.2020 13:00:00 33,0 9,0 15 8 WSW 10
02.07.2020 12:00:00 33,0 12,0 11 6 SW 10
02.07.2020 11:00:00 31,0 15,0 13 7 W 10
02.07.2020 10:00:00 30,0 13,0 9 5 SW 10
02.07.2020 09:00:00 30,0 12,0 5 3 SSW 10
02.07.2020 08:00:00 26,0 14,0 2 1 - 10
02.07.2020 07:00:00 22,0 14,0 5 3 ESE 10
02.07.2020 06:00:00 19,0 13,0 2 1 S 10
02.07.2020 05:00:00 21,0 12,0 9 5 NE 10
02.07.2020 04:00:00 21,0 12,0 11 6 NE 10
02.07.2020 03:00:00 20,0 15,0 5 3 NE 10
02.07.2020 02:00:00 21,0 15,0 4 2 ENE 10
02.07.2020 01:00:00 22,0 16,0 4 2 - 10
02.07.2020 00:00:00 22,0 16,0 5 3 N 10
01.07.2020 23:00:00 24,0 16,0 5 3 E 10
01.07.2020 22:00:00 25,0 17,0 8 4 SW 10
01.07.2020 21:00:00 27,0 16,0 5 3 SSW 10
01.07.2020 20:00:00 30,0 15,0 9 5 SSW 10
01.07.2020 19:00:00 32,0 12,0 5 3 WSW 10
01.07.2020 18:00:00 32,0 12,0 13 7 SW 10
01.07.2020 17:00:00 32,0 11,0 18 10 WSW 10
01.07.2020 16:00:00 33,0 11,0 13 7 SW 10
01.07.2020 15:00:00 32,0 11,0 15 8 SW 10
01.07.2020 14:00:00 32,0 13,0 18 10 SW 10
01.07.2020 13:00:00 34,0 14,0 18 10 WSW 10
01.07.2020 12:00:00 34,0 14,0 16 9 WSW 10
01.07.2020 11:00:00 33,0 10,0 5 3 - 10
01.07.2020 10:00:00 32,0 10,0 8 4 WNW 10
01.07.2020 09:00:00 30,0 11,0 5 3 - 10
01.07.2020 08:00:00 26,0 12,0 4 2 - 10
01.07.2020 07:00:00 21,0 12,0 9 5 NE 10
01.07.2020 06:00:00 19,0 12,0 8 4 NE 10
01.07.2020 05:00:00 18,0 12,0 5 3 ENE 10
01.07.2020 04:00:00 19,0 12,0 4 2 NE 10
01.07.2020 03:00:00 21,0 14,0 5 3 NE 10
01.07.2020 02:00:00 - - - - - -
01.07.2020 01:00:00 22,0 11,0 5 3 NE 10
01.07.2020 00:00:00 22,0 12,0 4 2 NE 10
30.06.2020 23:00:00 21,0 14,0 5 3 NE 10
30.06.2020 22:00:00 24,0 14,0 8 4 NE 10
30.06.2020 21:00:00 25,0 15,0 2 1 - 10
30.06.2020 20:00:00 28,0 13,0 13 7 W 10
30.06.2020 19:00:00 30,0 15,0 11 6 W 10
30.06.2020 18:00:00 30,0 16,0 11 6 WSW 10
30.06.2020 17:00:00 32,0 15,0 16 9 SW 10
30.06.2020 16:00:00 32,0 13,0 11 6 SW 10
30.06.2020 15:00:00 32,0 16,0 21 11 SW 10
30.06.2020 14:00:00 32,0 14,0 18 10 SW 10
30.06.2020 13:00:00 33,0 15,0 21 11 SW 10
30.06.2020 12:00:00 34,0 10,0 9 5 SSW 10
30.06.2020 11:00:00 33,0 12,0 5 3 - 10
30.06.2020 10:00:00 30,0 14,0 5 3 - 10
30.06.2020 09:00:00 29,0 14,0 4 2 - 10
30.06.2020 08:00:00 27,0 15,0 2 1 - 10
30.06.2020 07:00:00 21,0 15,0 5 3 ENE 10
30.06.2020 06:00:00 18,0 14,0 9 5 NE 10
30.06.2020 05:00:00 20,0 14,0 5 3 NE 10
30.06.2020 04:00:00 20,0 14,0 9 5 NE 10
30.06.2020 03:00:00 20,0 14,0 9 5 NE 10
30.06.2020 02:00:00 21,0 16,0 5 3 SE 10
30.06.2020 01:00:00 22,0 15,0 5 3 NE 10
30.06.2020 00:00:00 23,0 16,0 4 2 - 10
29.06.2020 23:00:00 24,0 16,0 5 3 NE 10
29.06.2020 22:00:00 25,0 17,0 4 2 - 10
29.06.2020 21:00:00 26,0 16,0 2 1 - 10
29.06.2020 20:00:00 28,0 15,0 5 3 W 10
29.06.2020 19:00:00 29,0 14,0 8 4 W 10
29.06.2020 18:00:00 28,0 17,0 9 5 WSW 10
29.06.2020 17:00:00 30,0 17,0 16 9 WSW 10
29.06.2020 16:00:00 29,0 18,0 16 9 SW 10
29.06.2020 15:00:00 29,0 19,0 16 9 SW 10
29.06.2020 14:00:00 29,0 19,0 16 9 SW 10
29.06.2020 13:00:00 30,0 18,0 16 9 SW 10
29.06.2020 12:00:00 31,0 18,0 15 8 SW 10
29.06.2020 11:00:00 31,0 13,0 8 4 SW 10
29.06.2020 10:00:00 29,0 15,0 4 2 - 10
29.06.2020 09:00:00 25,0 17,0 2 1 - 10
29.06.2020 08:00:00 20,0 19,0 4 2 - 10
29.06.2020 07:00:00 19,0 18,0 4 2 - 10
29.06.2020 06:00:00 18,0 18,0 5 3 S 10
29.06.2020 05:00:00 18,0 15,0 4 2 S 10
29.06.2020 04:00:00 18,0 13,0 5 3 NE 10
29.06.2020 03:00:00 19,0 15,0 5 3 NE 10
29.06.2020 02:00:00 19,0 15,0 5 3 E 10
29.06.2020 01:00:00 19,0 14,0 4 2 NE 10
29.06.2020 00:00:00 - - - - - -
28.06.2020 23:00:00 22,0 18,0 5 3 NE 10
28.06.2020 22:00:00 22,0 19,0 5 3 NNE 10
28.06.2020 21:00:00 23,0 19,0 8 4 WSW 10
28.06.2020 20:00:00 25,0 18,0 11 6 WSW 10
28.06.2020 19:00:00 27,0 17,0 11 6 SW 10
28.06.2020 18:00:00 29,0 15,0 15 8 SW 10
28.06.2020 17:00:00 30,0 13,0 15 8 WSW 10
28.06.2020 16:00:00 31,0 11,0 16 9 WSW 10
28.06.2020 15:00:00 31,0 10,0 16 9 SW 10
28.06.2020 14:00:00 31,0 10,0 15 8 SW 10
28.06.2020 13:00:00 30,0 11,0 15 8 SW 10
28.06.2020 12:00:00 30,0 11,0 13 7 WSW 10
28.06.2020 11:00:00 29,0 12,0 11 6 WSW 10
28.06.2020 10:00:00 28,0 14,0 9 5 W 10
28.06.2020 09:00:00 26,0 14,0 8 4 SW 10
28.06.2020 08:00:00 24,0 14,0 4 2 - 10
28.06.2020 07:00:00 21,0 12,0 5 3 SE 10
28.06.2020 06:00:00 20,0 10,0 5 3 NE 10
28.06.2020 05:00:00 20,0 11,0 9 5 NE 10
28.06.2020 04:00:00 20,0 12,0 5 3 NE 10
28.06.2020 03:00:00 19,0 13,0 8 4 NE 10
28.06.2020 02:00:00 20,0 14,0 5 3 ENE 10
28.06.2020 01:00:00 21,0 14,0 2 1 - 10
28.06.2020 00:00:00 22,0 15,0 5 3 NNE 10
27.06.2020 23:00:00 22,0 16,0 9 5 NE 10
27.06.2020 22:00:00 23,0 16,0 5 3 N 10
27.06.2020 21:00:00 25,0 16,0 8 4 WNW 10
27.06.2020 20:00:00 27,0 13,0 13 7 W 10
27.06.2020 19:00:00 29,0 11,0 13 7 SW 10
27.06.2020 18:00:00 30,0 11,0 16 9 SW 10

tt = temperature
td = dewpoint
ff = wind speed
dd = wind direction
vv = visibility

Next stations